createdAt,value
2023-02-19T00:03:19.564Z,12.20
2023-02-19T00:08:22.935Z,7.50
2023-02-19T00:13:26.505Z,11.80
2023-02-19T00:18:30.009Z,12.20
2023-02-19T00:23:33.555Z,10.00
2023-02-19T00:28:36.891Z,6.90
2023-02-19T00:33:41.192Z,14.40
2023-02-19T00:38:45.210Z,9.90
2023-02-19T00:43:55.918Z,10.60
2023-02-19T00:49:00.174Z,11.70
2023-02-19T00:54:05.204Z,6.30
2023-02-19T00:59:09.107Z,11.00
2023-02-19T01:04:12.870Z,9.80
2023-02-19T01:09:16.383Z,13.40
2023-02-19T01:14:19.687Z,8.00
2023-02-19T01:19:23.021Z,7.20
2023-02-19T01:24:26.327Z,9.70
2023-02-19T01:29:29.712Z,14.30
2023-02-19T01:34:34.968Z,10.80
2023-02-19T01:39:39.952Z,10.60
2023-02-19T01:44:43.197Z,9.30
2023-02-19T01:49:57.971Z,7.80
2023-02-19T01:55:05.388Z,12.40
2023-02-19T02:00:12.225Z,8.60
2023-02-19T02:05:25.560Z,9.40
2023-02-19T02:10:29.043Z,10.70
2023-02-19T02:15:58.806Z,10.50
2023-02-19T02:21:31.424Z,11.20
2023-02-19T02:27:21.377Z,5.20
2023-02-19T02:32:33.927Z,7.90
2023-02-19T02:37:40.885Z,6.80
2023-02-19T02:42:44.239Z,6.90
2023-02-19T02:47:55.586Z,7.20
2023-02-19T02:53:27.265Z,5.10
2023-02-19T02:58:32.851Z,6.30
2023-02-19T03:03:40.360Z,8.20
2023-02-19T03:09:00.789Z,16.10
2023-02-19T03:14:29.619Z,11.20
2023-02-19T03:19:38.332Z,9.40
2023-02-19T03:25:06.503Z,6.80
2023-02-19T03:30:16.585Z,10.00
2023-02-19T03:35:24.897Z,5.80
2023-02-19T03:40:31.944Z,7.20
2023-02-19T03:45:49.505Z,5.50
2023-02-19T03:51:13.460Z,7.60
2023-02-19T03:56:26.162Z,5.20
2023-02-19T04:01:54.657Z,5.10
2023-02-19T04:06:59.442Z,7.40
2023-02-19T04:12:04.012Z,7.50
2023-02-19T04:17:14.125Z,8.90
2023-02-19T04:22:18.270Z,6.80
2023-02-19T04:27:21.634Z,7.60
2023-02-19T04:32:25.391Z,7.40
2023-02-19T04:37:28.672Z,9.60
2023-02-19T04:42:31.941Z,7.00
2023-02-19T04:47:35.642Z,9.00
2023-02-19T04:52:39.665Z,9.30
2023-02-19T04:57:43.062Z,8.60
2023-02-19T05:02:46.427Z,9.70
2023-02-19T05:07:49.729Z,9.20
2023-02-19T05:12:57.792Z,8.80
2023-02-19T05:18:01.360Z,5.60
2023-02-19T05:23:04.574Z,7.30
2023-02-19T05:28:20.072Z,5.60
2023-02-19T05:33:26.874Z,7.00
2023-02-19T05:38:30.431Z,8.30
2023-02-19T05:43:33.776Z,12.60
2023-02-19T05:48:37.509Z,8.90
2023-02-19T05:53:41.861Z,13.60
2023-02-19T05:58:45.222Z,6.70
2023-02-19T06:03:48.613Z,7.10
2023-02-19T06:08:52.489Z,5.30
2023-02-19T06:13:55.852Z,6.10
2023-02-19T06:19:00.034Z,11.80
2023-02-19T06:24:08.648Z,6.40
2023-02-19T06:29:12.068Z,5.30
2023-02-19T06:34:15.343Z,6.90
2023-02-19T06:39:19.125Z,9.40
2023-02-19T06:44:23.255Z,7.30
2023-02-19T06:49:27.909Z,8.60
2023-02-19T06:54:33.770Z,8.20
2023-02-19T06:59:37.137Z,8.80
2023-02-19T07:04:40.475Z,4.30
2023-02-19T07:09:43.895Z,6.40
2023-02-19T07:14:47.715Z,7.90
2023-02-19T07:19:51.070Z,7.20
2023-02-19T07:24:54.579Z,9.30
2023-02-19T07:29:58.095Z,6.60
2023-02-19T07:35:01.577Z,6.70
2023-02-19T07:40:05.442Z,7.80
2023-02-19T07:45:09.401Z,8.70
2023-02-19T07:50:14.037Z,10.50
2023-02-19T07:55:17.497Z,10.80
2023-02-19T08:00:20.929Z,10.70
2023-02-19T08:05:24.450Z,9.10
2023-02-19T08:10:47.423Z,9.00
2023-02-19T08:15:51.564Z,6.90
2023-02-19T08:20:56.396Z,8.20
2023-02-19T08:26:01.813Z,7.00
2023-02-19T08:31:07.668Z,7.20
2023-02-19T08:36:12.142Z,9.40
2023-02-19T08:41:16.199Z,6.90
2023-02-19T08:46:19.636Z,4.30
2023-02-19T08:51:23.877Z,5.70
2023-02-19T08:56:27.216Z,5.10
2023-02-19T09:01:31.245Z,8.20
2023-02-19T09:06:34.631Z,8.00
2023-02-19T09:11:41.912Z,4.10
2023-02-19T09:16:48.282Z,7.70
2023-02-19T09:21:51.567Z,6.90
2023-02-19T09:26:55.887Z,7.70
2023-02-19T09:32:01.735Z,9.60
2023-02-19T09:37:06.541Z,8.70
2023-02-19T09:42:19.030Z,5.70
2023-02-19T09:47:25.988Z,5.40
2023-02-19T09:52:29.501Z,7.20
2023-02-19T09:57:36.913Z,3.80
2023-02-19T10:02:40.527Z,4.70
2023-02-19T10:07:48.252Z,6.00
2023-02-19T10:12:56.221Z,7.00
2023-02-19T10:17:59.751Z,7.30
2023-02-19T10:23:06.026Z,6.10
2023-02-19T10:28:19.776Z,4.20
2023-02-19T10:33:24.668Z,3.20
2023-02-19T10:38:34.992Z,3.90
2023-02-19T10:43:43.990Z,6.10
2023-02-19T10:48:52.782Z,5.50
2023-02-19T10:54:08.080Z,5.30
2023-02-19T10:59:30.036Z,4.60
2023-02-19T11:04:35.784Z,3.10
2023-02-19T11:09:43.160Z,3.60
2023-02-19T11:14:47.548Z,2.70
2023-02-19T11:19:56.991Z,3.00
2023-02-19T11:25:19.387Z,5.10
2023-02-19T11:30:46.201Z,2.90
2023-02-19T11:35:58.114Z,6.40
2023-02-19T11:41:20.896Z,4.80
2023-02-19T11:46:33.489Z,3.60
2023-02-19T11:51:51.463Z,4.30
2023-02-19T11:57:23.072Z,2.30
2023-02-19T12:02:27.227Z,3.50
2023-02-19T12:07:49.604Z,5.20
2023-02-19T12:13:29.956Z,2.90
2023-02-19T12:18:57.858Z,5.80
2023-02-19T12:24:23.285Z,3.00
2023-02-19T12:29:59.730Z,6.00
2023-02-19T12:35:19.008Z,1.80
2023-02-19T12:40:50.190Z,2.00
2023-02-19T12:46:00.491Z,2.10
2023-02-19T12:51:22.932Z,4.70
2023-02-19T12:56:52.394Z,4.00
2023-02-19T13:02:39.987Z,3.40
2023-02-19T13:08:05.282Z,2.70
2023-02-19T13:13:19.673Z,1.80
2023-02-19T13:18:43.061Z,4.00
2023-02-19T13:23:58.801Z,5.60
2023-02-19T13:29:20.613Z,6.10
2023-02-19T13:34:39.919Z,3.80
2023-02-19T13:45:37.550Z,6.20
2023-02-19T13:50:42.113Z,5.90
2023-02-19T13:55:52.860Z,3.40
2023-02-19T14:00:56.446Z,4.00
2023-02-19T14:06:03.637Z,6.60
2023-02-19T14:11:14.765Z,5.50
2023-02-19T14:16:40.245Z,4.00
2023-02-19T14:21:47.702Z,5.20
2023-02-19T14:27:08.684Z,3.80
2023-02-19T14:40:02.246Z,5.70
2023-02-19T14:45:27.379Z,8.00
2023-02-19T14:50:38.376Z,3.40
2023-02-19T14:55:47.233Z,3.90
2023-02-19T15:01:03.340Z,3.00
2023-02-19T15:06:37.610Z,2.70
2023-02-19T15:11:51.984Z,2.40
2023-02-19T15:17:03.767Z,2.00
2023-02-19T15:22:19.731Z,3.40
2023-02-19T15:27:27.042Z,1.20
2023-02-19T15:32:59.158Z,3.10
2023-02-19T15:38:17.716Z,3.80
2023-02-19T15:43:51.488Z,3.10
2023-02-19T15:49:23.121Z,3.00
2023-02-19T15:54:39.498Z,3.30
2023-02-19T15:59:56.164Z,3.60
2023-02-19T16:05:02.946Z,2.80
2023-02-19T16:10:26.005Z,4.80
2023-02-19T16:15:36.382Z,4.10
2023-02-19T16:20:45.759Z,3.90
2023-02-19T16:26:05.328Z,5.60
2023-02-19T16:31:17.635Z,4.20
2023-02-19T16:36:57.959Z,6.90
2023-02-19T16:42:05.608Z,4.60
2023-02-19T16:47:47.989Z,5.80
2023-02-19T16:52:55.852Z,7.20
2023-02-19T16:58:12.574Z,8.40
2023-02-19T17:03:28.017Z,5.00
2023-02-19T17:08:43.353Z,5.50
2023-02-19T17:13:50.249Z,7.50
2023-02-19T17:18:56.223Z,5.40
2023-02-19T17:24:06.964Z,4.00
2023-02-19T17:29:19.290Z,7.70
2023-02-19T17:34:30.538Z,9.90
2023-02-19T17:39:39.872Z,8.10
2023-02-19T17:44:49.982Z,10.90
2023-02-19T17:49:59.763Z,9.40
2023-02-19T17:55:09.934Z,8.50
2023-02-19T18:00:31.342Z,7.80
2023-02-19T18:05:36.127Z,7.90
2023-02-19T18:10:40.668Z,13.40
2023-02-19T18:15:46.384Z,8.70
2023-02-19T18:20:51.925Z,7.50
2023-02-19T18:25:58.468Z,4.50
2023-02-19T18:31:06.365Z,4.90
2023-02-19T18:36:13.448Z,6.40
2023-02-19T18:41:22.424Z,4.80
2023-02-19T18:46:30.919Z,7.20
2023-02-19T18:51:38.199Z,6.40
2023-02-19T18:56:48.155Z,9.60
2023-02-19T19:02:03.915Z,9.30
2023-02-19T19:07:10.091Z,8.50
2023-02-19T19:12:30.490Z,8.20
2023-02-19T19:17:48.015Z,7.60
2023-02-19T19:23:10.808Z,8.00
2023-02-19T19:28:35.741Z,9.50
2023-02-19T19:33:58.145Z,9.30
2023-02-19T19:45:01.728Z,9.80
2023-02-19T19:55:49.190Z,11.10
2023-02-19T20:01:01.505Z,8.50
2023-02-19T20:12:30.925Z,8.70
2023-02-19T20:17:46.520Z,6.60
2023-02-19T20:23:06.364Z,10.30
2023-02-19T20:28:36.016Z,6.00
2023-02-19T20:33:52.249Z,7.00
2023-02-19T20:39:03.848Z,8.70
2023-02-19T20:49:52.658Z,9.30
2023-02-19T20:55:09.907Z,6.40
2023-02-19T21:05:57.632Z,8.50
2023-02-19T21:11:14.358Z,6.50
2023-02-19T21:16:44.548Z,4.50
2023-02-19T21:22:13.243Z,4.90
2023-02-19T21:27:39.684Z,8.00
2023-02-19T21:32:59.668Z,7.10
2023-02-19T21:38:38.189Z,10.20
2023-02-19T21:44:20.737Z,8.00
2023-02-19T21:50:01.263Z,6.70
2023-02-19T21:55:16.348Z,7.10
2023-02-19T22:00:36.018Z,7.20
2023-02-19T22:06:27.999Z,6.40
2023-02-19T22:11:51.318Z,5.70
2023-02-19T22:16:58.298Z,5.50
2023-02-19T22:22:05.444Z,5.80
2023-02-19T22:27:13.951Z,8.40
2023-02-19T22:32:22.947Z,5.90
2023-02-19T22:37:33.568Z,7.20
2023-02-19T22:42:42.160Z,5.60
2023-02-19T22:48:30.999Z,5.80
2023-02-19T22:54:25.918Z,5.40
2023-02-19T22:59:51.124Z,7.20
2023-02-19T23:11:02.167Z,7.00
2023-02-19T23:16:58.989Z,7.00
2023-02-19T23:22:18.736Z,5.90
2023-02-19T23:27:29.222Z,5.20
2023-02-19T23:32:38.655Z,5.60
2023-02-19T23:37:51.117Z,3.70
2023-02-19T23:42:59.827Z,5.10
2023-02-19T23:48:03.734Z,3.90
2023-02-19T23:53:11.020Z,4.10
2023-02-19T23:58:27.122Z,3.40
